Time;durP1;ratioP1;P1;durP2;ratioP2;P2;SDS_P1;SDS_P2;PMS_P1;PMS_P2;Temp;Humidity;BMP_temperature;BMP_pressure;BME280_temperature;BME280_humidity;BME280_pressure;Samples;Min_cycle;Max_cycle;Signal;HPM_P1;HPM_P2
2023/10/15 00:01:50;;;;;;;6.03;2.53;;;10.90;67.90;;;;;;5005238;28;20251;-34
2023/10/15 00:04:20;;;;;;;7.67;2.00;;;10.80;67.80;;;;;;5005154;28;20703;-34
2023/10/15 00:06:51;;;;;;;5.67;1.93;;;10.80;67.90;;;;;;5011222;28;20282;-34
2023/10/15 00:09:19;;;;;;;6.80;1.90;;;10.80;67.90;;;;;;5010346;28;20291;-34
2023/10/15 00:11:47;;;;;;;5.03;1.90;;;10.80;68.00;;;;;;5008855;28;20201;-35
2023/10/15 00:14:19;;;;;;;4.87;1.70;;;10.80;67.90;;;;;;5006457;28;20198;-34
2023/10/15 00:16:50;;;;;;;4.40;1.60;;;10.80;67.90;;;;;;5013425;28;20762;-34
2023/10/15 00:19:20;;;;;;;5.83;2.20;;;10.70;67.80;;;;;;5007443;28;20271;-34
2023/10/15 00:21:51;;;;;;;4.10;1.53;;;10.80;67.80;;;;;;5019193;28;20293;-34
2023/10/15 00:24:18;;;;;;;5.10;1.60;;;10.70;67.80;;;;;;5022183;28;20253;-34
2023/10/15 00:26:49;;;;;;;4.10;1.53;;;10.70;67.80;;;;;;5007370;28;20773;-34
2023/10/15 00:29:16;;;;;;;4.57;1.80;;;10.70;67.80;;;;;;5015703;28;20301;-34
2023/10/15 00:31:47;;;;;;;8.03;1.80;;;10.70;67.80;;;;;;5023913;28;20644;-34
2023/10/15 00:34:16;;;;;;;5.87;1.80;;;10.70;67.90;;;;;;5013300;28;20220;-34
2023/10/15 00:36:44;;;;;;;6.43;2.23;;;10.70;67.90;;;;;;5022079;28;20304;-34
2023/10/15 00:39:20;;;;;;;3.77;1.87;;;10.70;67.90;;;;;;5008686;28;20210;-34
2023/10/15 00:41:50;;;;;;;4.27;1.40;;;10.70;67.90;;;;;;5010363;28;20202;-34
2023/10/15 00:44:20;;;;;;;6.73;2.07;;;10.70;67.90;;;;;;5029297;28;20300;-34
2023/10/15 00:46:54;;;;;;;5.20;1.80;;;10.70;67.90;;;;;;5003087;28;20228;-33
2023/10/15 00:49:25;;;;;;;6.20;2.03;;;10.60;67.90;;;;;;5008915;28;20823;-34
2023/10/15 00:51:52;;;;;;;5.00;1.63;;;10.60;67.80;;;;;;5019833;28;20582;-33
2023/10/15 00:54:25;;;;;;;5.97;1.30;;;10.60;67.80;;;;;;5023029;28;20259;-34
2023/10/15 00:56:55;;;;;;;5.00;1.60;;;10.60;67.90;;;;;;5005723;28;20202;-33
2023/10/15 00:59:34;;;;;;;4.57;1.43;;;10.60;68.00;;;;;;4999430;28;20259;-34
2023/10/15 01:04:34;;;;;;;4.43;1.53;;;10.60;67.90;;;;;;5017597;28;20234;-34
2023/10/15 01:10:07;;;;;;;7.77;1.80;;;10.60;67.90;;;;;;5027941;28;20206;-33
2023/10/15 01:12:34;;;;;;;2.20;1.10;;;10.60;67.90;;;;;;5018541;28;20621;-34
2023/10/15 01:15:02;;;;;;;5.43;1.53;;;10.60;68.00;;;;;;5024598;28;20242;-34
2023/10/15 01:17:37;;;;;;;3.30;1.30;;;10.60;68.00;;;;;;5021778;28;20316;-33
2023/10/15 01:20:07;;;;;;;5.97;1.47;;;10.60;68.00;;;;;;5019525;28;20208;-33
2023/10/15 01:22:39;;;;;;;2.67;1.10;;;10.60;68.00;;;;;;5017023;28;20585;-34
2023/10/15 01:25:24;;;;;;;5.17;1.30;;;10.70;68.10;;;;;;5023335;28;20648;-34
2023/10/15 01:27:55;;;;;;;4.17;1.20;;;10.60;68.10;;;;;;5015098;28;20555;-34
2023/10/15 01:30:24;;;;;;;4.80;1.50;;;10.70;68.10;;;;;;5024458;28;20293;-34
2023/10/15 01:32:52;;;;;;;4.97;1.30;;;10.70;68.10;;;;;;5027313;28;20205;-33
2023/10/15 01:35:19;;;;;;;5.43;1.57;;;10.70;68.20;;;;;;5027061;28;20207;-33
2023/10/15 01:38:32;;;;;;;4.20;1.20;;;10.70;68.10;;;;;;5026537;28;20295;-33
2023/10/15 01:40:37;;;;;;;6.13;1.40;;;10.70;68.10;;;;;;5028066;28;20581;-33
2023/10/15 01:43:14;;;;;;;4.17;1.30;;;10.80;68.20;;;;;;5012893;28;20235;-34
2023/10/15 01:45:47;;;;;;;4.67;1.47;;;10.80;68.20;;;;;;5028617;28;20306;-33
2023/10/15 01:48:32;;;;;;;4.07;1.37;;;10.80;68.20;;;;;;5021848;28;20648;-33
2023/10/15 01:51:06;;;;;;;4.07;1.33;;;10.80;68.20;;;;;;5023690;28;20307;-33
2023/10/15 01:53:39;;;;;;;5.90;1.53;;;10.80;68.10;;;;;;5004486;28;20217;-33
2023/10/15 01:56:16;;;;;;;5.83;1.37;;;10.80;68.10;;;;;;5020458;28;20293;-34
2023/10/15 01:58:52;;;;;;;3.57;1.27;;;10.80;68.10;;;;;;5013430;28;20695;-34
2023/10/15 02:01:31;;;;;;;3.83;1.23;;;10.80;68.10;;;;;;5017890;28;20252;-33
2023/10/15 02:03:58;;;;;;;5.07;1.40;;;10.80;68.10;;;;;;5020585;28;20216;-33
2023/10/15 02:06:31;;;;;;;6.17;1.37;;;10.80;68.10;;;;;;5014930;28;20547;-33
2023/10/15 02:08:58;;;;;;;3.37;1.00;;;10.80;68.10;;;;;;5017278;28;20308;-33
2023/10/15 02:11:27;;;;;;;4.67;1.40;;;10.80;68.20;;;;;;5007813;28;20280;-33
2023/10/15 02:14:07;;;;;;;5.63;1.47;;;10.80;68.20;;;;;;5025161;28;20627;-33
2023/10/15 02:16:37;;;;;;;4.33;1.60;;;10.80;68.20;;;;;;5027448;28;20307;-33
2023/10/15 02:19:07;;;;;;;5.83;1.23;;;10.80;68.10;;;;;;5020445;28;20224;-33
2023/10/15 02:21:35;;;;;;;6.93;1.77;;;10.80;68.10;;;;;;5011228;28;20201;-34
2023/10/15 02:24:12;;;;;;;3.87;1.20;;;10.80;68.10;;;;;;5021934;28;20318;-33
2023/10/15 02:26:41;;;;;;;3.80;1.40;;;10.80;68.10;;;;;;5008933;28;20223;-34
2023/10/15 02:29:27;;;;;;;6.40;1.40;;;10.80;68.10;;;;;;5035136;28;20300;-33
2023/10/15 02:31:56;;;;;;;3.57;1.17;;;10.80;68.10;;;;;;5017897;28;20687;-33
2023/10/15 02:34:28;;;;;;;6.57;1.20;;;10.80;68.10;;;;;;5024990;28;20683;-33
2023/10/15 02:37:04;;;;;;;3.90;1.27;;;10.80;68.10;;;;;;5024035;28;20590;-33
2023/10/15 02:39:38;;;;;;;4.20;1.13;;;10.80;68.10;;;;;;5011700;28;20675;-32
2023/10/15 02:42:07;;;;;;;2.47;1.03;;;10.80;68.10;;;;;;5019087;28;20283;-33
2023/10/15 02:44:39;;;;;;;2.90;1.10;;;10.80;68.10;;;;;;5006263;28;20289;-32
2023/10/15 02:47:10;;;;;;;3.47;1.03;;;10.80;68.10;;;;;;5007291;28;20186;-33
2023/10/15 02:52:36;;;;;;;4.20;0.97;;;10.80;68.10;;;;;;5010459;28;20214;-33
2023/10/15 02:55:08;;;;;;;3.80;1.40;;;10.80;68.00;;;;;;5022733;28;20236;-33
2023/10/15 02:57:41;;;;;;;3.77;0.87;;;10.70;68.00;;;;;;5017149;28;20216;-33
2023/10/15 03:00:15;;;;;;;2.30;1.00;;;10.70;68.00;;;;;;5012850;28;20208;-33
2023/10/15 03:02:46;;;;;;;3.73;1.10;;;10.70;68.00;;;;;;5004836;28;20236;-33
2023/10/15 03:05:18;;;;;;;4.30;1.03;;;10.70;68.80;;;;;;5005329;28;20337;-33
2023/10/15 03:07:47;;;;;;;4.67;1.10;;;10.70;68.10;;;;;;5004714;28;20665;-33
2023/10/15 03:10:22;;;;;;;5.90;1.10;;;10.70;68.10;;;;;;5018693;28;20201;-33
2023/10/15 03:12:50;;;;;;;4.10;1.20;;;10.70;68.10;;;;;;5015350;28;20288;-33
2023/10/15 03:15:20;;;;;;;4.77;1.23;;;10.70;68.10;;;;;;5013509;28;20217;-33
2023/10/15 03:17:50;;;;;;;2.83;1.10;;;10.70;68.00;;;;;;5010674;28;20315;-33
2023/10/15 03:22:51;;;;;;;3.07;1.27;;;10.70;68.10;;;;;;5021027;28;20284;-33
2023/10/15 03:25:21;;;;;;;6.27;1.27;;;10.60;68.00;;;;;;5025449;28;20805;-34
2023/10/15 03:27:48;;;;;;;3.53;1.00;;;10.60;68.40;;;;;;5021172;28;20206;-37
2023/10/15 03:30:23;;;;;;;2.47;1.10;;;10.60;68.00;;;;;;5008620;28;20295;-34
2023/10/15 03:32:53;;;;;;;4.60;1.23;;;10.60;68.00;;;;;;5010947;28;20300;-33
2023/10/15 03:35:45;;;;;;;4.07;1.23;;;10.60;68.00;;;;;;5007231;28;20291;-32
2023/10/15 03:38:13;;;;;;;4.30;1.07;;;10.60;68.10;;;;;;5014432;28;20641;-33
2023/10/15 03:40:49;;;;;;;4.37;1.20;;;10.60;68.10;;;;;;5018899;28;20201;-33
2023/10/15 03:43:23;;;;;;;2.83;0.97;;;10.60;68.10;;;;;;5019843;28;20676;-33
2023/10/15 03:45:53;;;;;;;2.23;0.80;;;10.60;68.10;;;;;;5008376;28;20249;-33
2023/10/15 03:48:39;;;;;;;3.30;1.03;;;10.60;68.20;;;;;;5006769;28;20285;-33
2023/10/15 03:51:15;;;;;;;4.10;1.07;;;10.60;68.20;;;;;;5017876;28;20225;-33
2023/10/15 03:53:49;;;;;;;2.60;1.10;;;10.60;68.20;;;;;;5027571;28;20283;-33
2023/10/15 03:56:27;;;;;;;3.60;1.20;;;10.60;68.20;;;;;;5006699;28;20205;-32
2023/10/15 03:58:56;;;;;;;6.53;1.30;;;10.60;68.30;;;;;;5006366;28;20213;-32
2023/10/15 04:01:30;;;;;;;4.10;0.97;;;10.60;68.30;;;;;;5019992;28;20240;-33
2023/10/15 04:04:02;;;;;;;4.93;1.17;;;10.60;68.30;;;;;;5009821;28;20260;-33
2023/10/15 04:06:29;;;;;;;3.77;1.23;;;10.60;68.30;;;;;;5008857;28;20221;-33
2023/10/15 04:11:42;;;;;;;4.50;1.20;;;10.60;68.30;;;;;;5025727;28;20252;-33
2023/10/15 04:16:50;;;;;;;5.20;1.07;;;10.60;68.30;;;;;;5013988;28;20225;-33
2023/10/15 04:19:20;;;;;;;2.77;0.97;;;10.60;68.30;;;;;;5010918;28;20205;-33
2023/10/15 04:21:47;;;;;;;6.57;1.20;;;10.60;68.30;;;;;;5023328;28;20230;-32
2023/10/15 04:24:18;;;;;;;3.20;0.90;;;10.50;68.20;;;;;;5011181;28;20308;-33
2023/10/15 04:26:50;;;;;;;3.27;1.03;;;10.50;68.20;;;;;;5027264;28;20302;-33
2023/10/15 04:29:17;;;;;;;5.17;1.13;;;10.50;68.20;;;;;;5021846;28;20288;-32
2023/10/15 04:32:10;;;;;;;2.60;0.97;;;10.50;68.20;;;;;;5013265;28;20229;-33
2023/10/15 04:34:39;;;;;;;3.67;1.00;;;10.50;68.20;;;;;;5025545;28;20234;-32
2023/10/15 04:37:16;;;;;;;2.50;0.83;;;10.50;68.30;;;;;;5017553;28;20239;-33
2023/10/15 04:39:55;;;;;;;5.67;1.00;;;10.50;68.30;;;;;;5010967;28;20251;-33
2023/10/15 04:42:48;;;;;;;5.47;1.20;;;10.50;68.30;;;;;;4999294;28;20224;-33
2023/10/15 04:45:21;;;;;;;5.27;1.33;;;10.50;68.30;;;;;;5006646;28;20220;-32
2023/10/15 04:47:59;;;;;;;5.73;1.40;;;10.40;68.30;;;;;;5009601;28;20206;-33
2023/10/15 04:50:32;;;;;;;5.67;1.03;;;10.40;69.00;;;;;;5007088;28;20205;-32
2023/10/15 04:55:46;;;;;;;3.70;1.13;;;10.40;68.30;;;;;;4995772;28;20859;-32
2023/10/15 04:58:18;;;;;;;3.67;1.20;;;10.40;68.30;;;;;;5004347;28;20224;-32
2023/10/15 05:00:47;;;;;;;2.13;0.80;;;10.40;68.30;;;;;;5007768;28;20305;-33
2023/10/15 05:03:20;;;;;;;4.07;1.10;;;10.40;68.30;;;;;;5007775;28;20268;-32
2023/10/15 05:05:48;;;;;;;3.20;1.00;;;10.40;68.30;;;;;;5014670;28;20221;-33
2023/10/15 05:08:23;;;;;;;3.17;0.87;;;10.40;68.40;;;;;;5024850;28;20305;-33
2023/10/15 05:10:51;;;;;;;2.00;1.00;;;10.30;68.30;;;;;;5015599;28;20192;-32
2023/10/15 05:13:19;;;;;;;5.03;1.23;;;10.30;68.30;;;;;;5018970;28;20209;-33
2023/10/15 05:15:50;;;;;;;4.70;1.10;;;10.30;68.30;;;;;;5012089;28;20207;-33
2023/10/15 05:18:20;;;;;;;2.63;0.77;;;10.30;68.30;;;;;;5024831;28;20229;-33
2023/10/15 05:20:48;;;;;;;4.13;1.00;;;10.30;68.30;;;;;;5011331;28;20220;-33
2023/10/15 05:23:19;;;;;;;2.97;1.03;;;10.30;68.30;;;;;;5014122;28;20305;-33
2023/10/15 05:25:53;;;;;;;5.23;0.90;;;10.30;68.30;;;;;;5024643;28;20234;-33
2023/10/15 05:28:23;;;;;;;5.13;0.80;;;10.30;68.40;;;;;;5017484;28;20224;-33
2023/10/15 05:30:50;;;;;;;2.93;0.90;;;10.30;68.40;;;;;;5020364;28;20213;-33
2023/10/15 05:33:17;;;;;;;3.10;0.80;;;10.30;68.30;;;;;;5001679;28;20973;-33
2023/10/15 05:35:49;;;;;;;4.20;0.80;;;10.30;68.40;;;;;;5007682;28;20214;-33
2023/10/15 05:38:19;;;;;;;2.67;1.00;;;10.20;68.30;;;;;;5027522;28;20232;-33
2023/10/15 05:40:57;;;;;;;3.63;0.90;;;10.20;68.30;;;;;;4997173;28;20695;-33
2023/10/15 05:43:27;;;;;;;2.57;1.07;;;10.20;68.30;;;;;;4996385;28;21380;-33
2023/10/15 05:45:59;;;;;;;4.17;1.03;;;10.20;68.30;;;;;;5001869;28;20221;-33
2023/10/15 05:48:28;;;;;;;3.87;0.90;;;10.10;68.30;;;;;;5001717;28;20206;-33
2023/10/15 05:50:58;;;;;;;4.80;1.00;;;10.10;68.30;;;;;;5000159;28;20937;-33
2023/10/15 05:53:25;;;;;;;3.07;1.17;;;10.10;68.40;;;;;;4998983;28;20206;-33
2023/10/15 05:55:54;;;;;;;4.53;1.20;;;10.10;68.40;;;;;;5000881;28;20202;-33
2023/10/15 05:58:25;;;;;;;4.77;1.17;;;10.10;68.50;;;;;;5012368;28;20205;-34
2023/10/15 06:00:54;;;;;;;4.33;1.27;;;10.10;68.30;;;;;;5005461;28;20237;-33
2023/10/15 06:03:21;;;;;;;4.93;1.20;;;10.10;68.40;;;;;;5014733;28;20237;-33
2023/10/15 06:05:49;;;;;;;5.80;1.10;;;10.10;68.40;;;;;;5039649;28;20252;-33
2023/10/15 06:08:16;;;;;;;2.93;0.90;;;10.00;68.40;;;;;;5026857;28;20695;-33
2023/10/15 06:10:45;;;;;;;3.93;1.10;;;10.00;68.40;;;;;;5025873;28;20994;-33
2023/10/15 06:13:12;;;;;;;4.30;0.87;;;10.00;68.40;;;;;;5029389;28;20196;-34
2023/10/15 06:15:39;;;;;;;2.13;0.80;;;10.00;68.40;;;;;;5008145;28;20577;-33
2023/10/15 06:18:10;;;;;;;3.47;1.00;;;10.00;68.40;;;;;;5013380;28;20219;-33
2023/10/15 06:20:42;;;;;;;3.93;0.90;;;10.00;68.50;;;;;;4995061;28;20202;-33
2023/10/15 06:23:13;;;;;;;0.00;0.00;;;10.00;68.50;;;;;;4990493;28;20201;-33
2023/10/15 06:25:42;;;;;;;0.00;0.00;;;10.00;68.50;;;;;;5003109;28;20206;-33
2023/10/15 06:28:13;;;;;;;0.00;0.00;;;10.00;68.40;;;;;;4998768;28;20201;-33
2023/10/15 06:30:46;;;;;;;0.00;0.00;;;10.10;68.40;;;;;;5003411;28;20204;-33
2023/10/15 06:33:18;;;;;;;0.00;0.00;;;10.10;68.30;;;;;;4998627;28;20198;-33
2023/10/15 06:35:48;;;;;;;0.00;0.00;;;10.20;68.20;;;;;;5000493;28;20216;-33
2023/10/15 06:38:17;;;;;;;0.00;0.00;;;10.20;68.10;;;;;;5004370;28;20201;-33
2023/10/15 06:40:44;;;;;;;0.00;0.00;;;10.20;68.10;;;;;;5013046;28;20232;-33
2023/10/15 06:43:15;;;;;;;0.00;0.00;;;10.20;68.00;;;;;;5008375;28;20978;-33
2023/10/15 06:45:42;;;;;;;0.00;0.00;;;10.20;68.10;;;;;;5019224;28;20209;-33
2023/10/15 06:48:14;;;;;;;0.00;0.00;;;10.20;68.00;;;;;;5017602;28;20718;-33
2023/10/15 06:50:43;;;;;;;0.00;0.00;;;10.30;68.00;;;;;;5010113;28;20212;-33
2023/10/15 06:53:13;;;;;;;0.00;0.00;;;10.30;67.90;;;;;;5016162;28;20264;-33
2023/10/15 06:55:45;;;;;;;0.00;0.00;;;10.30;67.90;;;;;;5006769;28;20569;-33
2023/10/15 06:58:20;;;;;;;0.00;0.00;;;10.30;68.00;;;;;;5016453;28;20248;-33
2023/10/15 07:00:49;;;;;;;0.00;0.00;;;10.30;68.00;;;;;;5008193;28;20614;-33
2023/10/15 07:03:19;;;;;;;0.00;0.00;;;10.30;68.00;;;;;;5017833;28;20323;-35
2023/10/15 07:05:46;;;;;;;0.00;0.00;;;10.30;68.00;;;;;;5011535;28;20209;-33
2023/10/15 07:08:13;;;;;;;0.00;0.00;;;10.30;68.00;;;;;;5012463;28;20197;-33
2023/10/15 07:10:41;;;;;;;0.00;0.00;;;10.40;68.10;;;;;;5017881;28;20216;-33
2023/10/15 07:13:13;;;;;;;0.00;0.00;;;10.40;68.10;;;;;;5017625;28;20552;-33
2023/10/15 07:15:46;;;;;;;0.00;0.00;;;10.40;68.10;;;;;;5014934;28;20197;-33
2023/10/15 07:18:15;;;;;;;0.00;0.00;;;10.40;68.10;;;;;;5017852;28;20207;-33
2023/10/15 07:20:44;;;;;;;0.00;0.00;;;10.40;68.00;;;;;;5005219;28;20214;-33
2023/10/15 07:23:11;;;;;;;0.00;0.00;;;10.50;68.10;;;;;;5019226;28;20212;-33
2023/10/15 07:25:39;;;;;;;0.00;0.00;;;10.50;68.10;;;;;;5025922;28;20228;-33
2023/10/15 07:28:11;;;;;;;0.00;0.00;;;10.50;68.10;;;;;;5012832;28;20660;-33
2023/10/15 07:30:39;;;;;;;0.00;0.00;;;10.60;68.10;;;;;;5015299;28;20317;-33
2023/10/15 07:33:12;;;;;;;0.00;0.00;;;10.60;68.10;;;;;;5023047;28;21000;-33
2023/10/15 07:35:40;;;;;;;0.00;0.00;;;10.60;68.10;;;;;;5015056;28;20986;-40
2023/10/15 07:38:07;;;;;;;0.00;0.00;;;10.60;68.10;;;;;;5011355;28;20204;-33
2023/10/15 07:40:37;;;;;;;0.00;0.00;;;10.60;68.00;;;;;;5019870;28;20197;-33
2023/10/15 07:43:08;;;;;;;0.00;0.00;;;10.70;68.10;;;;;;5013458;28;20202;-33
2023/10/15 07:45:37;;;;;;;0.00;0.00;;;10.70;68.20;;;;;;5016619;28;20569;-33
2023/10/15 07:48:09;;;;;;;0.00;0.00;;;10.70;68.20;;;;;;5017271;28;20220;-33
2023/10/15 07:50:37;;;;;;;0.00;0.00;;;10.70;68.20;;;;;;5009489;28;21005;-33
2023/10/15 07:53:06;;;;;;;0.00;0.00;;;10.80;68.30;;;;;;5017638;28;20272;-33
2023/10/15 07:55:35;;;;;;;0.00;0.00;;;10.80;68.30;;;;;;5015084;28;20656;-34
2023/10/15 07:58:03;;;;;;;0.00;0.00;;;10.90;68.40;;;;;;5021839;28;20197;-33
2023/10/15 08:00:30;;;;;;;0.00;0.00;;;10.90;68.30;;;;;;5023491;28;20332;-33
2023/10/15 08:03:01;;;;;;;0.00;0.00;;;10.90;68.20;;;;;;4999962;28;20243;-34
2023/10/15 08:05:36;;;;;;;0.00;0.00;;;10.90;68.20;;;;;;5023178;28;20205;-34
2023/10/15 08:08:06;;;;;;;0.00;0.00;;;11.00;68.30;;;;;;5015609;28;20213;-33
2023/10/15 08:10:36;;;;;;;0.00;0.00;;;11.00;68.30;;;;;;5015979;28;20217;-34
2023/10/15 08:13:08;;;;;;;0.00;0.00;;;11.00;68.00;;;;;;5020267;28;20553;-33
2023/10/15 08:15:36;;;;;;;0.00;0.00;;;11.00;68.00;;;;;;5006768;28;20205;-34
2023/10/15 08:18:04;;;;;;;0.00;0.00;;;11.00;68.10;;;;;;5014042;28;20197;-34
2023/10/15 08:20:36;;;;;;;0.00;0.00;;;11.00;68.20;;;;;;5018661;28;20593;-34
2023/10/15 08:23:05;;;;;;;0.00;0.00;;;11.10;68.30;;;;;;5021012;28;20209;-33
2023/10/15 08:25:33;;;;;;;0.00;0.00;;;11.10;68.30;;;;;;5010597;28;20579;-31
2023/10/15 08:28:02;;;;;;;0.00;0.00;;;11.10;68.30;;;;;;5020339;28;20236;-31
2023/10/15 08:30:36;;;;;;;0.00;0.00;;;11.20;68.40;;;;;;5020486;28;20832;-30
2023/10/15 08:33:10;;;;;;;0.00;0.00;;;11.20;68.40;;;;;;5021778;28;20205;-30
2023/10/15 08:35:43;;;;;;;0.00;0.00;;;11.30;68.40;;;;;;5015656;28;20221;-31
2023/10/15 08:38:15;;;;;;;0.00;0.00;;;11.30;68.40;;;;;;5015455;28;20779;-30
2023/10/15 08:40:46;;;;;;;0.00;0.00;;;11.40;68.60;;;;;;5016028;28;20291;-30
2023/10/15 08:43:27;;;;;;;0.00;0.00;;;11.40;68.50;;;;;;5037197;28;20202;-30
2023/10/15 08:45:58;;;;;;;0.00;0.00;;;11.50;68.50;;;;;;5020015;28;20232;-31
2023/10/15 08:48:28;;;;;;;0.00;0.00;;;11.50;68.40;;;;;;5023461;28;20221;-31
2023/10/15 08:50:57;;;;;;;0.00;0.00;;;11.50;68.40;;;;;;5017090;28;20206;-32
2023/10/15 08:53:30;;;;;;;0.00;0.00;;;11.50;68.40;;;;;;5011738;28;20233;-30
2023/10/15 08:56:01;;;;;;;0.00;0.00;;;11.60;68.50;;;;;;5016820;28;20217;-30
2023/10/15 08:58:35;;;;;;;0.00;0.00;;;11.60;68.40;;;;;;5015536;28;20205;-31
2023/10/15 09:01:04;;;;;;;0.00;0.00;;;11.60;68.30;;;;;;4998530;28;20205;-30
2023/10/15 09:03:38;;;;;;;0.00;0.00;;;11.70;68.30;;;;;;5015254;28;20664;-30
2023/10/15 09:06:05;;;;;;;0.00;0.00;;;11.70;68.30;;;;;;5010880;28;20194;-30
2023/10/15 09:08:35;;;;;;;0.00;0.00;;;11.70;68.40;;;;;;5027067;28;20201;-31
2023/10/15 09:11:04;;;;;;;0.00;0.00;;;11.70;68.30;;;;;;5010648;28;20308;-31
2023/10/15 09:13:36;;;;;;;0.00;0.00;;;11.70;68.30;;;;;;5010291;28;20221;-31
2023/10/15 09:16:06;;;;;;;0.00;0.00;;;11.80;68.40;;;;;;5011893;28;20287;-31
2023/10/15 09:18:36;;;;;;;0.00;0.00;;;11.80;68.50;;;;;;5030067;28;20224;-31
2023/10/15 09:21:04;;;;;;;0.00;0.00;;;11.80;68.50;;;;;;5016391;28;20205;-31
2023/10/15 09:23:36;;;;;;;0.00;0.00;;;11.90;68.60;;;;;;5018785;28;20217;-31
2023/10/15 09:26:07;;;;;;;0.00;0.00;;;11.90;68.50;;;;;;5008778;28;20225;-31
2023/10/15 09:28:35;;;;;;;0.00;0.00;;;12.00;68.50;;;;;;5014665;28;20395;-30
2023/10/15 09:31:11;;;;;;;0.00;0.00;;;12.00;68.50;;;;;;5035596;28;20199;-31
2023/10/15 09:33:39;;;;;;;0.00;0.00;;;12.00;68.60;;;;;;5029207;28;20205;-31
2023/10/15 09:36:09;;;;;;;0.00;0.00;;;12.00;68.60;;;;;;5020464;28;20198;-31
2023/10/15 09:38:37;;;;;;;0.00;0.00;;;12.00;68.60;;;;;;5007108;28;20304;-30
2023/10/15 09:41:05;;;;;;;0.00;0.00;;;12.10;68.60;;;;;;5012826;28;20213;-31
2023/10/15 09:43:38;;;;;;;0.00;0.00;;;12.10;68.60;;;;;;5011321;28;20206;-31
2023/10/15 09:46:06;;;;;;;0.00;0.00;;;12.10;68.60;;;;;;5015500;28;20197;-31
2023/10/15 09:48:37;;;;;;;0.00;0.00;;;12.10;68.60;;;;;;5014883;28;20230;-30
2023/10/15 09:51:07;;;;;;;0.00;0.00;;;12.20;68.60;;;;;;5015709;28;20240;-30
2023/10/15 09:53:41;;;;;;;0.00;0.00;;;12.20;68.60;;;;;;5009081;28;20248;-31
2023/10/15 09:56:15;;;;;;;0.00;0.00;;;12.20;68.40;;;;;;5008244;28;20197;-31
2023/10/15 09:58:43;;;;;;;0.00;0.00;;;12.20;68.30;;;;;;5024154;28;20714;-31
2023/10/15 10:01:25;;;;;;;0.00;0.00;;;12.20;68.30;;;;;;5010105;28;20229;-31
2023/10/15 10:04:14;;;;;;;0.00;0.00;;;12.20;68.30;;;;;;5017769;28;20211;-31
2023/10/15 10:06:59;;;;;;;0.00;0.00;;;12.20;68.30;;;;;;5025515;28;20212;-31
2023/10/15 10:09:51;;;;;;;0.00;0.00;;;12.20;68.30;;;;;;5011362;28;20202;-30
2023/10/15 10:13:08;;;;;;;0.00;0.00;;;12.20;68.50;;;;;;5015406;28;20294;-31
2023/10/15 10:15:42;;;;;;;0.00;0.00;;;12.10;68.40;;;;;;5012695;28;20208;-31
2023/10/15 10:18:13;;;;;;;0.00;0.00;;;12.10;68.40;;;;;;5011894;28;20283;-31
2023/10/15 10:20:49;;;;;;;0.00;0.00;;;12.10;68.40;;;;;;5016900;28;20197;-31
2023/10/15 10:23:17;;;;;;;0.00;0.00;;;12.10;68.40;;;;;;5017373;28;20210;-30
2023/10/15 10:25:48;;;;;;;0.00;0.00;;;12.10;68.60;;;;;;5021946;28;20252;-31
2023/10/15 10:28:22;;;;;;;0.00;0.00;;;12.20;68.60;;;;;;5021137;28;20232;-31
2023/10/15 10:30:54;;;;;;;0.00;0.00;;;12.20;68.60;;;;;;5016616;28;20206;-31
2023/10/15 10:33:49;;;;;;;0.00;0.00;;;12.20;69.40;;;;;;5016942;28;20209;-31
2023/10/15 10:36:27;;;;;;;0.00;0.00;;;12.20;68.70;;;;;;5004729;28;20580;-31
2023/10/15 10:39:15;;;;;;;0.00;0.00;;;12.30;68.70;;;;;;5017364;28;20193;-31
2023/10/15 10:41:50;;;;;;;0.00;0.00;;;12.30;68.70;;;;;;5039549;28;20217;-31
2023/10/15 10:44:23;;;;;;;0.00;0.00;;;12.30;68.50;;;;;;5020355;28;20190;-31
2023/10/15 10:47:19;;;;;;;0.00;0.00;;;12.30;68.60;;;;;;5014218;28;20229;-30
2023/10/15 10:50:12;;;;;;;0.00;0.00;;;12.30;68.70;;;;;;5012689;28;20312;-31
2023/10/15 10:52:40;;;;;;;0.00;0.00;;;12.40;68.80;;;;;;5010693;28;20217;-31
2023/10/15 10:55:30;;;;;;;0.00;0.00;;;12.40;68.80;;;;;;5014397;28;20530;-31
2023/10/15 10:58:02;;;;;;;0.00;0.00;;;12.40;68.80;;;;;;5006843;28;20308;-31
2023/10/15 11:00:33;;;;;;;0.00;0.00;;;12.50;68.60;;;;;;5007899;28;20313;-31
2023/10/15 11:03:06;;;;;;;0.00;0.00;;;12.50;68.50;;;;;;4998823;28;20249;-31
2023/10/15 11:05:36;;;;;;;0.00;0.00;;;12.50;68.50;;;;;;5004359;28;20228;-31
2023/10/15 11:08:15;;;;;;;0.00;0.00;;;12.50;68.50;;;;;;5000146;28;20680;-31
2023/10/15 11:10:45;;;;;;;0.00;0.00;;;12.60;68.60;;;;;;5008806;28;20202;-31
2023/10/15 11:13:15;;;;;;;0.00;0.00;;;12.60;68.60;;;;;;4989571;28;20220;-31
2023/10/15 11:15:49;;;;;;;0.00;0.00;;;12.60;68.60;;;;;;5005266;28;20202;-30
2023/10/15 11:18:21;;;;;;;0.00;0.00;;;12.60;68.50;;;;;;5018758;28;20216;-30
2023/10/15 11:20:52;;;;;;;0.00;0.00;;;12.60;68.20;;;;;;5014454;28;20662;-31
2023/10/15 11:23:23;;;;;;;0.00;0.00;;;12.70;68.30;;;;;;4990919;28;20235;-31
2023/10/15 11:25:58;;;;;;;0.00;0.00;;;12.60;68.20;;;;;;5004726;28;20208;-30
2023/10/15 11:28:25;;;;;;;0.00;0.00;;;12.70;68.20;;;;;;5001734;28;20256;-31
2023/10/15 11:30:57;;;;;;;0.00;0.00;;;12.70;68.20;;;;;;5006862;28;20751;-31
2023/10/15 11:33:29;;;;;;;0.00;0.00;;;12.70;68.30;;;;;;5012686;28;20211;-31
2023/10/15 11:36:03;;;;;;;0.00;0.00;;;12.70;68.30;;;;;;5008647;28;20335;-31
2023/10/15 11:38:34;;;;;;;0.00;0.00;;;12.70;68.30;;;;;;5022394;28;20209;-30
2023/10/15 11:41:03;;;;;;;0.00;0.00;;;12.80;68.40;;;;;;5014959;28;20698;-31
2023/10/15 11:43:32;;;;;;;0.00;0.00;;;12.80;68.30;;;;;;5021233;28;20725;-30
2023/10/15 11:46:07;;;;;;;0.00;0.00;;;12.80;68.20;;;;;;5009859;28;20205;-30
2023/10/15 11:48:43;;;;;;;0.00;0.00;;;12.90;69.00;;;;;;5009658;28;20233;-30
2023/10/15 11:51:12;;;;;;;0.00;0.00;;;12.90;68.30;;;;;;5018019;28;20275;-31
2023/10/15 11:53:46;;;;;;;0.00;0.00;;;12.90;68.30;;;;;;5009053;28;20309;-30
2023/10/15 11:56:16;;;;;;;0.00;0.00;;;13.00;68.30;;;;;;5015749;28;20198;-31
2023/10/15 11:58:48;;;;;;;0.00;0.00;;;13.00;67.30;;;;;;5011484;28;20206;-31
2023/10/15 12:01:17;;;;;;;0.00;0.00;;;12.90;67.40;;;;;;5004286;28;20217;-31
2023/10/15 12:03:47;;;;;;;0.00;0.00;;;12.90;67.40;;;;;;5017623;28;20206;-31
2023/10/15 12:06:16;;;;;;;0.00;0.00;;;12.80;67.30;;;;;;5016780;28;20862;-31
2023/10/15 12:08:48;;;;;;;0.00;0.00;;;12.70;66.80;;;;;;5027928;28;20585;-31
2023/10/15 12:11:20;;;;;;;0.00;0.00;;;12.50;66.70;;;;;;5025833;28;20327;-31
2023/10/15 12:13:51;;;;;;;0.00;0.00;;;12.40;66.90;;;;;;5019651;28;20190;-32
2023/10/15 12:16:18;;;;;;;0.00;0.00;;;12.30;67.10;;;;;;5012432;28;20643;-31
2023/10/15 12:18:45;;;;;;;0.00;0.00;;;12.20;67.30;;;;;;5019615;28;20220;-31
2023/10/15 12:21:16;;;;;;;0.00;0.00;;;12.10;67.50;;;;;;5022016;28;20529;-31
2023/10/15 12:23:43;;;;;;;0.00;0.00;;;12.10;67.70;;;;;;5016905;28;20198;-31
2023/10/15 12:26:11;;;;;;;0.00;0.00;;;12.10;67.70;;;;;;5013190;28;20248;-31
2023/10/15 12:28:44;;;;;;;0.00;0.00;;;12.10;67.80;;;;;;5007613;28;20691;-31
2023/10/15 12:31:12;;;;;;;0.00;0.00;;;12.10;67.80;;;;;;5010923;28;20750;-31
2023/10/15 12:33:42;;;;;;;0.00;0.00;;;12.10;67.70;;;;;;5019118;28;20289;-33
2023/10/15 12:36:11;;;;;;;0.00;0.00;;;12.10;67.70;;;;;;5022585;28;20212;-31
2023/10/15 12:38:42;;;;;;;0.00;0.00;;;12.10;67.80;;;;;;5024608;28;20288;-31
2023/10/15 12:41:10;;;;;;;0.00;0.00;;;12.10;67.80;;;;;;5026761;28;20304;-31
2023/10/15 12:43:42;;;;;;;0.00;0.00;;;12.10;67.90;;;;;;5011274;28;20229;-31
2023/10/15 12:46:12;;;;;;;0.00;0.00;;;12.10;68.00;;;;;;5005600;28;20210;-31
2023/10/15 12:48:43;;;;;;;0.00;0.00;;;12.10;68.00;;;;;;5021237;28;20601;-31
2023/10/15 12:51:11;;;;;;;0.00;0.00;;;12.10;68.00;;;;;;5026523;28;20228;-31
2023/10/15 12:53:38;;;;;;;0.00;0.00;;;12.10;68.00;;;;;;5014525;28;21837;-31
2023/10/15 12:56:06;;;;;;;0.00;0.00;;;12.10;68.00;;;;;;5024025;28;20303;-31
2023/10/15 12:58:35;;;;;;;0.00;0.00;;;12.20;68.10;;;;;;5010068;28;20925;-31
2023/10/15 13:01:02;;;;;;;0.00;0.00;;;12.20;68.20;;;;;;5010759;28;20988;-31
2023/10/15 13:03:30;;;;;;;0.00;0.00;;;12.20;68.00;;;;;;5008115;28;20205;-31
2023/10/15 13:05:57;;;;;;;0.00;0.00;;;12.20;68.10;;;;;;5013523;28;20303;-31
2023/10/15 13:08:27;;;;;;;0.00;0.00;;;12.20;68.10;;;;;;5027110;28;20227;-31
2023/10/15 13:10:54;;;;;;;0.00;0.00;;;12.20;68.20;;;;;;5019951;28;20322;-31
2023/10/15 13:13:28;;;;;;;0.00;0.00;;;12.20;68.30;;;;;;5029016;28;20201;-31
2023/10/15 13:15:57;;;;;;;0.00;0.00;;;12.30;68.30;;;;;;5010471;28;20216;-31
2023/10/15 13:18:28;;;;;;;0.00;0.00;;;12.30;68.40;;;;;;5031109;28;20819;-30
2023/10/15 13:20:57;;;;;;;0.00;0.00;;;12.30;68.40;;;;;;5009072;28;20209;-31
2023/10/15 13:23:25;;;;;;;0.00;0.00;;;12.40;68.40;;;;;;5022824;28;20256;-31
2023/10/15 13:25:59;;;;;;;0.00;0.00;;;12.40;68.50;;;;;;5009106;28;20669;-31
2023/10/15 13:28:26;;;;;;;0.00;0.00;;;12.40;68.50;;;;;;5008513;28;20225;-31
2023/10/15 13:30:54;;;;;;;0.00;0.00;;;12.50;68.50;;;;;;5011771;28;20213;-31